RJTH(METAR)
06/29 14:00
RJTH 290500Z 01003KT 9999 FEW010 BKN012 BKN020 25/23 Q1015 RMK
A2997=
戻る
トップページへ戻る
IMOC Co,.Ltd.